Time;durP1;ratioP1;P1;durP2;ratioP2;P2;SDS_P1;SDS_P2;PMS_P1;PMS_P2;Temp;Humidity;BMP_temperature;BMP_pressure;BME280_temperature;BME280_humidity;BME280_pressure;Samples;Min_cycle;Max_cycle;Signal;HPM_P1;HPM_P2
2023/05/17 00:01:25;;;;;;;0.10;0.10;;;9.40;99.90;;;;;;6159172;23;20028;-87
2023/05/17 00:03:53;;;;;;;0.10;0.10;;;9.40;99.90;;;;;;6159442;23;20004;-88
2023/05/17 00:06:19;;;;;;;0.10;0.10;;;9.30;99.90;;;;;;6160814;23;20009;-87
2023/05/17 00:08:44;;;;;;;0.10;0.10;;;9.40;99.90;;;;;;6159143;23;20059;-87
2023/05/17 00:11:10;;;;;;;0.10;0.10;;;9.30;99.90;;;;;;6159863;23;20013;-87
2023/05/17 00:13:37;;;;;;;0.10;0.10;;;;;;;;;;6159975;23;20008;-87
2023/05/17 00:16:03;;;;;;;0.10;0.10;;;9.20;99.90;;;;;;6159308;23;20008;-87
2023/05/17 00:18:28;;;;;;;0.10;0.10;;;9.20;99.90;;;;;;6184547;23;20088;-87
2023/05/17 00:20:54;;;;;;;0.10;0.10;;;;;;;;;;6159476;23;20348;-87
2023/05/17 00:23:20;;;;;;;0.10;0.10;;;9.20;99.90;;;;;;6159419;23;20005;-87
2023/05/17 00:25:45;;;;;;;0.00;0.00;;;9.30;99.90;;;;;;6159921;23;20001;-87
2023/05/17 00:28:11;;;;;;;0.00;0.00;;;9.30;99.90;;;;;;6159413;23;20055;-87
2023/05/17 00:30:36;;;;;;;0.10;0.10;;;9.30;99.90;;;;;;6160718;23;20031;-87
2023/05/17 00:33:03;;;;;;;0.10;0.10;;;;;;;;;;6159154;23;20004;-87
2023/05/17 00:35:29;;;;;;;0.10;0.10;;;9.40;99.90;;;;;;6183215;23;20433;-87
2023/05/17 00:37:55;;;;;;;0.10;0.10;;;;;;;;;;6157825;23;20075;-87
2023/05/17 00:40:21;;;;;;;0.10;0.10;;;9.30;99.90;;;;;;6158885;23;20422;-86
2023/05/17 00:42:47;;;;;;;0.10;0.10;;;9.40;99.90;;;;;;6156729;23;20406;-87
2023/05/17 00:45:12;;;;;;;0.10;0.10;;;9.40;99.90;;;;;;6157770;23;20128;-86
2023/05/17 00:47:38;;;;;;;0.10;0.10;;;9.30;99.90;;;;;;6158289;23;20140;-87
2023/05/17 00:50:05;;;;;;;0.10;0.10;;;9.30;99.90;;;;;;6157511;23;20095;-87
2023/05/17 00:52:30;;;;;;;0.10;0.10;;;9.20;99.90;;;;;;6158462;23;20439;-86
2023/05/17 00:54:56;;;;;;;0.10;0.10;;;9.30;99.90;;;;;;6158616;23;20040;-87
2023/05/17 00:57:21;;;;;;;0.10;0.10;;;9.20;99.90;;;;;;6157649;23;20056;-87
2023/05/17 00:59:49;;;;;;;0.10;0.10;;;9.20;99.90;;;;;;6157683;23;20013;-87
2023/05/17 01:02:15;;;;;;;0.10;0.10;;;9.00;99.90;;;;;;6157603;23;20001;-87
2023/05/17 01:04:40;;;;;;;0.10;0.10;;;9.20;99.90;;;;;;6158402;23;20005;-87
2023/05/17 01:07:08;;;;;;;0.10;0.10;;;;;;;;;;6181496;23;20032;-87
2023/05/17 01:09:34;;;;;;;0.10;0.10;;;9.20;99.90;;;;;;6157470;23;20022;-87
2023/05/17 01:12:14;;;;;;;0.00;0.00;;;9.30;99.90;;;;;;6153653;23;20020;-86
2023/05/17 01:15:27;;;;;;;0.10;0.10;;;9.20;99.90;;;;;;6157850;23;20345;-87
2023/05/17 01:18:11;;;;;;;0.00;0.00;;;9.20;99.90;;;;;;6156932;23;20015;-87
2023/05/17 01:20:40;;;;;;;0.10;0.10;;;9.10;99.90;;;;;;6159095;23;20096;-86
2023/05/17 01:23:30;;;;;;;0.10;0.10;;;9.10;99.90;;;;;;6158997;23;20013;-86
2023/05/17 01:26:29;;;;;;;0.10;0.10;;;9.10;99.90;;;;;;6157593;23;20340;-86
2023/05/17 01:28:58;;;;;;;0.10;0.10;;;9.10;99.90;;;;;;6157066;23;20016;-86
2023/05/17 01:31:24;;;;;;;0.10;0.10;;;9.00;99.90;;;;;;6158419;23;20029;-88
2023/05/17 01:33:50;;;;;;;0.08;0.08;;;9.00;99.90;;;;;;6157864;23;20012;-88
2023/05/17 01:36:15;;;;;;;0.10;0.10;;;8.90;99.90;;;;;;6157368;23;19997;-87
2023/05/17 01:38:41;;;;;;;0.00;0.00;;;9.00;99.90;;;;;;6157356;23;20452;-86
2023/05/17 01:41:32;;;;;;;0.10;0.10;;;8.90;99.90;;;;;;6156723;23;20063;-86
2023/05/17 01:44:36;;;;;;;0.10;0.10;;;8.90;99.90;;;;;;6157685;23;20005;-87
2023/05/17 01:47:31;;;;;;;0.10;0.10;;;9.00;99.90;;;;;;6157273;23;20088;-88
2023/05/17 01:49:59;;;;;;;0.10;0.10;;;8.80;99.90;;;;;;6158344;23;20005;-87
2023/05/17 01:52:36;;;;;;;0.10;0.10;;;8.80;99.90;;;;;;6158529;23;20009;-87
2023/05/17 01:55:20;;;;;;;0.10;0.10;;;8.90;99.90;;;;;;6157299;23;20087;-86
2023/05/17 01:57:50;;;;;;;0.10;0.10;;;8.90;99.90;;;;;;6156682;23;20005;-87
2023/05/17 02:00:16;;;;;;;0.10;0.10;;;9.00;99.90;;;;;;6157335;23;20009;-86
2023/05/17 02:02:43;;;;;;;0.10;0.10;;;8.90;99.90;;;;;;6157548;23;20036;-86
2023/05/17 02:05:09;;;;;;;0.00;0.00;;;;;;;;;;6157150;23;20016;-87
2023/05/17 02:07:35;;;;;;;0.10;0.10;;;;;;;;;;6157152;23;20531;-87
2023/05/17 02:10:02;;;;;;;0.10;0.10;;;;;;;;;;6156946;23;20005;-88
2023/05/17 02:12:27;;;;;;;0.00;0.00;;;8.90;99.90;;;;;;6157701;23;20012;-86
2023/05/17 02:14:53;;;;;;;0.10;0.10;;;;;;;;;;6156321;23;20205;-87
2023/05/17 02:17:19;;;;;;;0.10;0.10;;;;;;;;;;6157533;23;20038;-88
2023/05/17 02:19:45;;;;;;;0.10;0.10;;;8.80;99.90;;;;;;6155952;23;20507;-86
2023/05/17 02:22:10;;;;;;;0.10;0.10;;;9.00;99.90;;;;;;6156705;23;20001;-87
2023/05/17 02:24:36;;;;;;;0.10;0.10;;;9.00;99.90;;;;;;6181704;23;20460;-88
2023/05/17 02:27:02;;;;;;;0.10;0.10;;;9.10;99.90;;;;;;6155919;23;20013;-87
2023/05/17 02:29:27;;;;;;;0.10;0.10;;;9.00;99.90;;;;;;6156240;23;20143;-87
2023/05/17 02:31:53;;;;;;;0.10;0.10;;;;;;;;;;6155597;23;20401;-87
2023/05/17 02:34:19;;;;;;;0.10;0.10;;;9.00;99.90;;;;;;6156981;23;20009;-86
2023/05/17 02:36:44;;;;;;;0.10;0.10;;;9.10;99.90;;;;;;6157059;23;20024;-86
2023/05/17 02:39:10;;;;;;;0.00;0.00;;;9.10;99.90;;;;;;6155039;23;20060;-86
2023/05/17 02:41:35;;;;;;;0.10;0.10;;;9.10;99.90;;;;;;6156619;23;20046;-88
2023/05/17 02:44:01;;;;;;;0.10;0.10;;;9.10;99.90;;;;;;6156450;23;20005;-86
2023/05/17 02:46:26;;;;;;;0.00;0.00;;;9.20;99.90;;;;;;6156075;23;20004;-86
2023/05/17 02:48:52;;;;;;;0.10;0.10;;;9.30;99.90;;;;;;6157198;23;20443;-87
2023/05/17 02:51:20;;;;;;;0.10;0.10;;;9.30;99.90;;;;;;6156660;23;20001;-86
2023/05/17 02:53:46;;;;;;;0.10;0.10;;;;;;;;;;6187463;23;20439;-86
2023/05/17 02:56:12;;;;;;;0.08;0.08;;;9.40;99.90;;;;;;6158266;23;20032;-86
2023/05/17 02:58:37;;;;;;;0.10;0.10;;;9.20;99.90;;;;;;6183576;23;20009;-87
2023/05/17 03:01:03;;;;;;;0.00;0.00;;;9.10;99.90;;;;;;6158696;23;20005;-86
2023/05/17 03:03:29;;;;;;;0.10;0.10;;;9.00;99.90;;;;;;6158579;23;20037;-88
2023/05/17 03:05:55;;;;;;;0.00;0.00;;;;;;;;;;6158183;23;20035;-87
2023/05/17 03:08:20;;;;;;;0.03;0.03;;;8.70;99.90;;;;;;6158119;23;20000;-87
2023/05/17 03:10:46;;;;;;;0.10;0.10;;;8.90;99.90;;;;;;6156947;23;20269;-86
2023/05/17 03:13:11;;;;;;;0.10;0.10;;;8.80;99.90;;;;;;6156994;23;20041;-87
2023/05/17 03:15:37;;;;;;;0.10;0.10;;;8.80;99.90;;;;;;6157769;23;20005;-86
2023/05/17 03:18:03;;;;;;;0.10;0.10;;;;;;;;;;6156534;23;20020;-86
2023/05/17 03:20:28;;;;;;;0.00;0.00;;;8.70;99.90;;;;;;6156338;23;20416;-86
2023/05/17 03:22:54;;;;;;;0.10;0.10;;;8.60;99.90;;;;;;6156138;23;20341;-86
2023/05/17 03:25:19;;;;;;;0.10;0.10;;;8.50;99.90;;;;;;6156593;23;20001;-86
2023/05/17 03:27:45;;;;;;;0.10;0.10;;;8.40;99.90;;;;;;6155324;23;20013;-86
2023/05/17 03:30:11;;;;;;;0.00;0.00;;;;;;;;;;6157432;23;20036;-85
2023/05/17 03:32:38;;;;;;;0.00;0.00;;;8.50;99.90;;;;;;6157661;23;20337;-86
2023/05/17 03:35:04;;;;;;;0.10;0.10;;;8.50;99.90;;;;;;6156739;23;20687;-86
2023/05/17 03:37:30;;;;;;;0.10;0.10;;;8.50;99.90;;;;;;6156763;23;20052;-86
2023/05/17 03:39:55;;;;;;;0.10;0.10;;;8.40;99.90;;;;;;6156305;23;20005;-87
2023/05/17 03:42:21;;;;;;;0.10;0.10;;;8.40;99.90;;;;;;6156514;23;20033;-87
2023/05/17 03:44:46;;;;;;;0.10;0.10;;;8.40;99.90;;;;;;6157247;23;19997;-87
2023/05/17 03:47:12;;;;;;;0.10;0.10;;;8.50;99.90;;;;;;6156839;23;20008;-87
2023/05/17 03:49:38;;;;;;;0.00;0.00;;;;;;;;;;6157160;23;19997;-86
2023/05/17 03:52:03;;;;;;;0.00;0.00;;;8.40;99.90;;;;;;6157510;23;20092;-87
2023/05/17 03:54:29;;;;;;;0.00;0.00;;;8.30;99.90;;;;;;6157944;23;20096;-87
2023/05/17 03:56:54;;;;;;;0.10;0.10;;;8.20;99.90;;;;;;6157746;23;20028;-87
2023/05/17 03:59:20;;;;;;;0.00;0.00;;;8.30;99.90;;;;;;6158188;23;20068;-86
2023/05/17 04:01:45;;;;;;;0.10;0.10;;;8.30;99.90;;;;;;6156650;23;20001;-86
2023/05/17 04:04:11;;;;;;;0.10;0.10;;;;;;;;;;6157314;23;20032;-86
2023/05/17 04:06:38;;;;;;;0.10;0.10;;;8.10;99.90;;;;;;6154720;23;20004;-86
2023/05/17 04:09:04;;;;;;;0.00;0.00;;;;;;;;;;6156481;23;20013;-88
2023/05/17 04:11:31;;;;;;;0.10;0.10;;;;;;;;;;6155505;23;20016;-86
2023/05/17 04:13:57;;;;;;;0.00;0.00;;;8.30;99.90;;;;;;6157995;23;20005;-87
2023/05/17 04:16:22;;;;;;;0.10;0.10;;;8.20;99.90;;;;;;6157629;23;20500;-87
2023/05/17 04:18:51;;;;;;;0.10;0.10;;;8.20;99.90;;;;;;6158284;23;20116;-87
2023/05/17 04:21:17;;;;;;;0.10;0.10;;;8.20;99.90;;;;;;6158400;23;20001;-87
2023/05/17 04:23:43;;;;;;;0.05;0.05;;;;;;;;;;6160258;23;20447;-87
2023/05/17 04:26:09;;;;;;;0.10;0.10;;;;;;;;;;6158895;23;20001;-88
2023/05/17 04:28:35;;;;;;;0.10;0.10;;;;;;;;;;6161039;23;20020;-86
2023/05/17 04:31:01;;;;;;;0.00;0.00;;;8.60;99.90;;;;;;6159465;23;20009;-88
2023/05/17 04:33:26;;;;;;;0.10;0.10;;;8.40;99.90;;;;;;6160096;23;20387;-87
2023/05/17 04:35:55;;;;;;;0.00;0.00;;;8.50;99.90;;;;;;6161017;23;20012;-87
2023/05/17 04:38:22;;;;;;;0.00;0.00;;;;;;;;;;6159228;23;20009;-87
2023/05/17 04:40:48;;;;;;;0.10;0.10;;;8.50;99.90;;;;;;6158766;23;20340;-86
2023/05/17 04:43:13;;;;;;;0.10;0.10;;;8.60;99.90;;;;;;6158814;23;20096;-87
2023/05/17 04:45:39;;;;;;;0.10;0.10;;;;;;;;;;6160208;23;19997;-88
2023/05/17 04:48:05;;;;;;;0.00;0.00;;;9.10;99.90;;;;;;6158379;23;20063;-87
2023/05/17 04:50:32;;;;;;;0.10;0.10;;;;;;;;;;6159182;23;20009;-86
2023/05/17 04:52:57;;;;;;;0.00;0.00;;;8.90;99.90;;;;;;6160306;23;20021;-87
2023/05/17 04:55:23;;;;;;;0.10;0.10;;;9.00;99.90;;;;;;6160194;23;20008;-86
2023/05/17 04:57:48;;;;;;;0.00;0.00;;;;;;;;;;6162525;23;20008;-88
2023/05/17 05:00:15;;;;;;;0.00;0.00;;;9.10;99.90;;;;;;6158628;23;20435;-87
2023/05/17 05:02:41;;;;;;;0.00;0.00;;;;;;;;;;6159789;23;20405;-88
2023/05/17 05:05:08;;;;;;;0.00;0.00;;;9.60;99.90;;;;;;6184975;23;20051;-89
2023/05/17 05:07:34;;;;;;;0.10;0.10;;;;;;;;;;6186129;23;20358;-88
2023/05/17 05:10:00;;;;;;;0.00;0.00;;;;;;;;;;6159266;23;20096;-90
2023/05/17 05:12:26;;;;;;;0.10;0.10;;;;;;;;;;6161295;23;20009;-90
2023/05/17 05:14:52;;;;;;;0.10;0.10;;;;;;;;;;6161758;23;20484;-90
2023/05/17 05:17:18;;;;;;;0.10;0.10;;;;;;;;;;6160791;23;20008;-90
2023/05/17 05:19:44;;;;;;;0.00;0.00;;;;;;;;;;6160344;23;20016;-89
2023/05/17 05:22:10;;;;;;;0.10;0.10;;;;;;;;;;6160219;23;20005;-87
2023/05/17 05:24:36;;;;;;;0.00;0.00;;;;;;;;;;6157581;23;20073;-88
2023/05/17 05:27:02;;;;;;;0.10;0.10;;;;;;;;;;6155391;23;20009;-88
2023/05/17 05:29:28;;;;;;;0.10;0.10;;;8.90;99.90;;;;;;6158917;23;20088;-89
2023/05/17 05:31:53;;;;;;;0.10;0.10;;;;;;;;;;6157852;23;20091;-90
2023/05/17 05:34:19;;;;;;;0.10;0.10;;;9.30;99.90;;;;;;6157766;23;20068;-88
2023/05/17 05:36:45;;;;;;;0.00;0.00;;;9.30;99.90;;;;;;6158753;23;20071;-89
2023/05/17 05:39:11;;;;;;;0.10;0.10;;;;;;;;;;6158638;23;20005;-89
2023/05/17 05:41:37;;;;;;;0.10;0.10;;;;;;;;;;6159279;23;20008;-89
2023/05/17 05:44:03;;;;;;;0.10;0.10;;;;;;;;;;6185179;23;20001;-88
2023/05/17 05:46:28;;;;;;;0.10;0.10;;;9.60;99.90;;;;;;6159431;23;20092;-90
2023/05/17 05:48:54;;;;;;;0.00;0.00;;;;;;;;;;6159391;23;20009;-87
2023/05/17 05:51:20;;;;;;;0.00;0.00;;;10.00;99.90;;;;;;6159542;23;19997;-89
2023/05/17 05:53:45;;;;;;;0.10;0.10;;;10.00;99.90;;;;;;6184121;23;20009;-86
2023/05/17 05:56:11;;;;;;;0.10;0.10;;;10.00;99.90;;;;;;6158367;23;20009;-89
2023/05/17 05:58:37;;;;;;;0.10;0.10;;;;;;;;;;6159234;23;20039;-89
2023/05/17 06:01:03;;;;;;;0.00;0.00;;;;;;;;;;6159084;23;19997;-89
2023/05/17 06:03:29;;;;;;;0.00;0.00;;;;;;;;;;6159105;23;20012;-89
2023/05/17 06:05:54;;;;;;;0.10;0.10;;;10.10;99.90;;;;;;6185629;23;20008;-90
2023/05/17 06:08:20;;;;;;;0.00;0.00;;;;;;;;;;6155919;23;20009;-88
2023/05/17 06:10:46;;;;;;;0.05;0.05;;;;;;;;;;6157993;23;20020;-89
2023/05/17 06:13:12;;;;;;;0.10;0.10;;;;;;;;;;6158424;23;20008;-90
2023/05/17 06:15:39;;;;;;;0.10;0.10;;;10.40;99.90;;;;;;6157747;23;20088;-90
2023/05/17 06:18:05;;;;;;;0.00;0.00;;;;;;;;;;6158993;23;20603;-90
2023/05/17 06:20:31;;;;;;;0.10;0.10;;;10.20;99.90;;;;;;6158465;23;20013;-87
2023/05/17 06:22:56;;;;;;;0.10;0.10;;;10.00;99.90;;;;;;6158712;23;20031;-89
2023/05/17 06:25:22;;;;;;;0.10;0.10;;;9.80;99.90;;;;;;6158182;23;20001;-88
2023/05/17 06:27:48;;;;;;;0.10;0.10;;;;;;;;;;6157611;23;20464;-89
2023/05/17 06:30:13;;;;;;;0.00;0.00;;;9.90;99.90;;;;;;6157563;23;20059;-89
2023/05/17 06:32:40;;;;;;;0.00;0.00;;;;;;;;;;6158695;23;20435;-90
2023/05/17 06:35:06;;;;;;;0.10;0.10;;;10.10;99.90;;;;;;6157216;23;20012;-91
2023/05/17 06:37:32;;;;;;;0.10;0.10;;;10.10;99.90;;;;;;6158339;23;20093;-89
2023/05/17 06:40:05;;;;;;;0.00;0.00;;;10.00;99.90;;;;;;6158428;23;20410;-88
2023/05/17 06:42:32;;;;;;;0.08;0.08;;;10.00;98.50;;;;;;6156405;23;20479;-91
2023/05/17 06:44:58;;;;;;;0.10;0.10;;;;;;;;;;6184207;23;20377;-86
2023/05/17 06:47:23;;;;;;;0.05;0.05;;;9.50;98.80;;;;;;6156871;23;20483;-89
2023/05/17 06:49:49;;;;;;;0.03;0.03;;;10.50;99.90;;;;;;6156899;23;20088;-87
2023/05/17 06:52:15;;;;;;;0.10;0.10;;;9.70;99.80;;;;;;6156512;23;20047;-89
2023/05/17 06:54:40;;;;;;;0.10;0.10;;;9.60;99.90;;;;;;6157550;23;20009;-89
2023/05/17 06:57:06;;;;;;;0.00;0.00;;;;;;;;;;6157146;23;20005;-89
2023/05/17 06:59:32;;;;;;;0.00;0.00;;;9.80;99.40;;;;;;6156269;23;20016;-89
2023/05/17 07:01:59;;;;;;;0.10;0.10;;;9.80;98.60;;;;;;6155341;23;20005;-87
2023/05/17 07:04:25;;;;;;;0.10;0.10;;;;;;;;;;6179739;23;20020;-90
2023/05/17 07:06:50;;;;;;;0.00;0.00;;;10.20;98.30;;;;;;6155651;23;20055;-89
2023/05/17 07:09:16;;;;;;;0.00;0.00;;;;;;;;;;6155524;23;20363;-87
2023/05/17 07:11:42;;;;;;;0.10;0.10;;;10.70;97.60;;;;;;6156324;23;20005;-89
2023/05/17 07:14:07;;;;;;;0.10;0.10;;;10.80;96.30;;;;;;6154883;23;20099;-89
2023/05/17 07:16:33;;;;;;;0.10;0.10;;;10.70;94.70;;;;;;6182629;23;20048;-89
2023/05/17 07:18:59;;;;;;;0.10;0.10;;;;;;;;;;6158169;23;20005;-90
2023/05/17 07:21:25;;;;;;;0.10;0.10;;;;;;;;;;6157225;23;20059;-92
2023/05/17 07:23:51;;;;;;;0.10;0.10;;;;;;;;;;6157820;23;20029;-91
2023/05/17 07:26:20;;;;;;;0.00;0.00;;;11.10;95.30;;;;;;6157616;23;20008;-91
2023/05/17 07:28:46;;;;;;;0.10;0.10;;;10.90;95.00;;;;;;6157645;23;20009;-89
2023/05/17 07:31:12;;;;;;;0.10;0.10;;;;;;;;;;6156161;23;20445;-89
2023/05/17 07:33:38;;;;;;;0.00;0.00;;;10.60;95.20;;;;;;6158057;23;20016;-89
2023/05/17 07:36:05;;;;;;;0.00;0.00;;;10.50;95.00;;;;;;6157468;23;20016;-88
2023/05/17 07:38:31;;;;;;;0.10;0.10;;;;;;;;;;6158380;23;20055;-91
2023/05/17 07:40:56;;;;;;;0.10;0.10;;;10.80;95.30;;;;;;6157197;23;20008;-88
2023/05/17 07:43:23;;;;;;;0.10;0.10;;;11.10;95.50;;;;;;6157410;23;20067;-89
2023/05/17 07:45:48;;;;;;;0.00;0.00;;;11.30;93.60;;;;;;6133751;23;20074;-91
2023/05/17 07:48:14;;;;;;;0.00;0.00;;;11.30;93.90;;;;;;6160330;23;20091;-88
2023/05/17 07:50:40;;;;;;;0.10;0.10;;;11.30;94.10;;;;;;6160658;23;20005;-88
2023/05/17 07:53:06;;;;;;;0.10;0.10;;;11.40;95.70;;;;;;6159787;23;20321;-90
2023/05/17 07:55:31;;;;;;;0.00;0.00;;;11.40;93.20;;;;;;6160574;23;19997;-87
2023/05/17 07:57:57;;;;;;;0.00;0.00;;;;;;;;;;6159898;23;20036;-89
2023/05/17 08:00:23;;;;;;;0.00;0.00;;;;;;;;;;6158897;23;20001;-90
2023/05/17 08:02:49;;;;;;;0.10;0.10;;;;;;;;;;6159970;23;20001;-88
2023/05/17 08:05:15;;;;;;;0.10;0.10;;;;;;;;;;6159234;23;20005;-89
2023/05/17 08:07:41;;;;;;;0.10;0.10;;;11.40;91.60;;;;;;6159294;23;19997;-88
2023/05/17 08:10:07;;;;;;;0.00;0.00;;;11.10;92.00;;;;;;6159544;23;20452;-88
2023/05/17 08:12:33;;;;;;;0.10;0.10;;;;;;;;;;6159325;23;20025;-89
2023/05/17 08:14:59;;;;;;;0.00;0.00;;;11.30;91.20;;;;;;6159584;23;20012;-89
2023/05/17 08:17:24;;;;;;;0.00;0.00;;;11.60;92.20;;;;;;6158884;23;20009;-88
2023/05/17 08:19:50;;;;;;;0.10;0.10;;;11.60;91.80;;;;;;6159208;23;20013;-87
2023/05/17 08:22:16;;;;;;;0.10;0.10;;;11.50;92.10;;;;;;6185770;23;20047;-89
2023/05/17 08:24:43;;;;;;;0.00;0.00;;;11.50;92.30;;;;;;6159393;23;20006;-86
2023/05/17 08:27:09;;;;;;;0.00;0.00;;;11.40;92.40;;;;;;6159706;23;20457;-86
2023/05/17 08:29:36;;;;;;;0.00;0.00;;;11.50;93.00;;;;;;6159716;23;20037;-87
2023/05/17 08:32:01;;;;;;;0.05;0.05;;;11.70;91.80;;;;;;6159023;23;20005;-88
2023/05/17 08:34:27;;;;;;;0.00;0.00;;;12.20;92.30;;;;;;6158645;23;20004;-88
2023/05/17 08:36:52;;;;;;;0.00;0.00;;;12.20;92.50;;;;;;6159551;23;20020;-90
2023/05/17 08:39:19;;;;;;;0.00;0.00;;;12.00;91.30;;;;;;6158738;23;20337;-91
2023/05/17 08:41:46;;;;;;;0.10;0.10;;;12.20;91.60;;;;;;6159247;23;20059;-88
2023/05/17 08:44:13;;;;;;;0.10;0.10;;;12.30;91.40;;;;;;6159313;23;20100;-91
2023/05/17 08:46:40;;;;;;;0.00;0.00;;;12.10;91.10;;;;;;6158736;23;20012;-88
2023/05/17 08:49:11;;;;;;;0.10;0.10;;;12.00;91.20;;;;;;6159372;23;20082;-90
2023/05/17 08:51:38;;;;;;;0.00;0.00;;;11.80;91.70;;;;;;6159599;23;20005;-88
2023/05/17 08:54:04;;;;;;;0.10;0.10;;;11.90;92.30;;;;;;6159388;23;20722;-88
2023/05/17 08:56:31;;;;;;;0.00;0.00;;;;;;;;;;6158404;23;20001;-89
2023/05/17 08:58:58;;;;;;;0.00;0.00;;;12.10;90.90;;;;;;6158627;23;20509;-88
2023/05/17 09:01:24;;;;;;;0.00;0.00;;;12.00;90.50;;;;;;6158235;23;20001;-88
2023/05/17 09:03:50;;;;;;;0.00;0.00;;;12.00;90.70;;;;;;6158917;23;20103;-87
2023/05/17 09:06:25;;;;;;;0.00;0.00;;;11.90;91.10;;;;;;6159088;23;20445;-89
2023/05/17 09:08:52;;;;;;;0.00;0.00;;;11.80;91.40;;;;;;6159546;23;20445;-88
2023/05/17 09:11:26;;;;;;;0.00;0.00;;;11.70;93.10;;;;;;6158399;23;20441;-87
2023/05/17 09:13:52;;;;;;;0.00;0.00;;;11.50;92.30;;;;;;6158980;23;20009;-89
2023/05/17 09:16:20;;;;;;;0.10;0.10;;;11.50;93.10;;;;;;6158057;23;20047;-89
2023/05/17 09:18:54;;;;;;;0.10;0.10;;;12.00;91.40;;;;;;6158748;23;20441;-89
2023/05/17 09:21:20;;;;;;;0.10;0.10;;;11.90;91.10;;;;;;6158560;23;20429;-89
2023/05/17 09:23:46;;;;;;;0.00;0.00;;;12.10;90.90;;;;;;6159202;23;20028;-88
2023/05/17 09:26:12;;;;;;;0.00;0.00;;;12.40;91.40;;;;;;6158448;23;20333;-88
2023/05/17 09:28:40;;;;;;;0.10;0.10;;;12.00;92.40;;;;;;6158811;23;20015;-87
2023/05/17 09:31:12;;;;;;;0.00;0.00;;;12.50;91.60;;;;;;6158224;23;20009;-91
2023/05/17 09:33:45;;;;;;;0.00;0.00;;;12.40;91.40;;;;;;6159355;23;20057;-87
2023/05/17 09:36:22;;;;;;;0.05;0.05;;;12.30;90.40;;;;;;6185167;23;20016;-87
2023/05/17 09:39:06;;;;;;;0.00;0.00;;;11.60;92.50;;;;;;6158611;23;20009;-89
2023/05/17 09:41:39;;;;;;;0.03;0.03;;;12.20;91.90;;;;;;6159378;23;20023;-90
2023/05/17 09:44:10;;;;;;;0.10;0.10;;;12.30;91.60;;;;;;6159845;23;20384;-88
2023/05/17 09:46:40;;;;;;;0.00;0.00;;;12.50;91.00;;;;;;6158100;23;20009;-90
2023/05/17 09:49:08;;;;;;;0.00;0.00;;;12.00;91.40;;;;;;6158130;23;20087;-89
2023/05/17 09:51:42;;;;;;;0.10;0.10;;;12.20;93.00;;;;;;6183209;23;20341;-89
2023/05/17 09:54:09;;;;;;;0.10;0.10;;;11.90;90.60;;;;;;6157579;23;20041;-89
2023/05/17 09:56:35;;;;;;;0.00;0.00;;;11.70;90.60;;;;;;6157890;23;20013;-89
2023/05/17 09:59:02;;;;;;;0.00;0.00;;;11.60;91.20;;;;;;6158530;23;20013;-89
2023/05/17 10:01:30;;;;;;;0.00;0.00;;;11.60;90.30;;;;;;6158421;23;20005;-90
2023/05/17 10:04:03;;;;;;;0.00;0.00;;;11.70;91.90;;;;;;6158449;23;20008;-89
2023/05/17 10:06:32;;;;;;;0.03;0.03;;;12.00;92.00;;;;;;6157551;23;19998;-88
2023/05/17 10:09:00;;;;;;;0.00;0.00;;;12.00;92.20;;;;;;6185227;23;20024;-89
2023/05/17 10:11:32;;;;;;;0.00;0.00;;;12.60;87.40;;;;;;6158526;23;20005;-88
2023/05/17 10:14:15;;;;;;;0.00;0.00;;;12.60;87.90;;;;;;6158577;23;20005;-88
2023/05/17 10:16:41;;;;;;;0.10;0.10;;;12.70;89.00;;;;;;6158618;23;20009;-91
2023/05/17 10:19:09;;;;;;;0.00;0.00;;;12.90;90.00;;;;;;6158694;23;20381;-89
2023/05/17 10:21:36;;;;;;;0.00;0.00;;;13.30;85.70;;;;;;6158337;23;20714;-90
2023/05/17 10:24:03;;;;;;;0.00;0.00;;;13.30;86.10;;;;;;6158693;23;20036;-87
2023/05/17 10:26:29;;;;;;;0.00;0.00;;;13.10;86.70;;;;;;6158199;23;20500;-90
2023/05/17 10:29:01;;;;;;;0.00;0.00;;;12.90;85.40;;;;;;6158882;23;20091;-89
2023/05/17 10:31:32;;;;;;;0.10;0.10;;;12.80;87.00;;;;;;6157891;23;20009;-89
2023/05/17 10:34:00;;;;;;;0.00;0.00;;;12.70;87.70;;;;;;6157682;23;20128;-89
2023/05/17 10:36:25;;;;;;;0.00;0.00;;;12.80;85.10;;;;;;6183950;23;20451;-88
2023/05/17 10:38:51;;;;;;;0.00;0.00;;;13.00;85.40;;;;;;6158534;23;20005;-90
2023/05/17 10:41:20;;;;;;;0.00;0.00;;;13.10;83.80;;;;;;6155246;23;19997;-92
2023/05/17 10:43:47;;;;;;;0.00;0.00;;;13.60;84.00;;;;;;6158126;23;20448;-89
2023/05/17 10:46:20;;;;;;;0.00;0.00;;;13.70;81.70;;;;;;6155348;23;20005;-91
2023/05/17 10:48:50;;;;;;;0.00;0.00;;;13.70;81.90;;;;;;6158017;23;20038;-90
2023/05/17 10:51:31;;;;;;;0.00;0.00;;;13.60;84.20;;;;;;6157810;23;20005;-90
2023/05/17 10:54:17;;;;;;;0.00;0.00;;;13.70;84.10;;;;;;6157372;23;20012;-91
2023/05/17 10:56:50;;;;;;;0.00;0.00;;;13.80;82.50;;;;;;6157847;23;20013;-90
2023/05/17 10:59:20;;;;;;;0.00;0.00;;;14.80;84.40;;;;;;6134606;23;20071;-91
2023/05/17 11:02:06;;;;;;;0.00;0.00;;;14.10;81.10;;;;;;6157649;23;20001;-89
2023/05/17 11:04:40;;;;;;;0.00;0.00;;;14.10;84.10;;;;;;6157716;23;20001;-89
2023/05/17 11:07:19;;;;;;;0.00;0.00;;;13.90;83.70;;;;;;6157209;23;20036;-89
2023/05/17 11:10:09;;;;;;;0.00;0.00;;;14.00;83.00;;;;;;6157292;23;20005;-89
2023/05/17 11:12:36;;;;;;;0.00;0.00;;;14.10;84.40;;;;;;6142733;23;20159;-90
2023/05/17 11:15:07;;;;;;;0.00;0.00;;;14.30;84.40;;;;;;6157301;23;20009;-89
2023/05/17 11:17:41;;;;;;;0.00;0.00;;;14.50;82.20;;;;;;6156686;23;20055;-88
2023/05/17 11:20:15;;;;;;;0.00;0.00;;;14.30;81.40;;;;;;6161585;23;20005;-89
2023/05/17 11:23:03;;;;;;;0.00;0.00;;;14.40;80.80;;;;;;6157959;23;20009;-88
2023/05/17 11:25:39;;;;;;;0.00;0.00;;;14.30;78.70;;;;;;6157300;23;20487;-90
2023/05/17 11:28:09;;;;;;;0.00;0.00;;;14.30;84.40;;;;;;6158321;23;20009;-89
2023/05/17 11:30:40;;;;;;;0.00;0.00;;;13.60;83.30;;;;;;6157221;23;20022;-88
2023/05/17 11:33:06;;;;;;;0.00;0.00;;;13.50;85.00;;;;;;6183344;23;20009;-89
2023/05/17 11:35:36;;;;;;;0.00;0.00;;;13.80;86.60;;;;;;6157262;23;20135;-90
2023/05/17 11:38:13;;;;;;;0.00;0.00;;;14.00;87.20;;;;;;6158081;23;20075;-90
2023/05/17 11:40:39;;;;;;;0.00;0.00;;;14.10;85.10;;;;;;6157032;23;20005;-89
2023/05/17 11:43:15;;;;;;;0.00;0.00;;;13.70;82.80;;;;;;6157476;23;20078;-90
2023/05/17 11:45:44;;;;;;;0.00;0.00;;;13.80;81.10;;;;;;6156461;23;20433;-87
2023/05/17 11:48:14;;;;;;;0.00;0.00;;;13.80;81.50;;;;;;6156574;23;20008;-88
2023/05/17 11:50:41;;;;;;;0.00;0.00;;;13.70;82.30;;;;;;6182027;23;20444;-90
2023/05/17 11:53:07;;;;;;;0.00;0.00;;;13.60;82.20;;;;;;6155276;23;20012;-91
2023/05/17 11:55:50;;;;;;;0.03;0.03;;;13.60;81.30;;;;;;6154982;23;20032;-90
2023/05/17 11:58:18;;;;;;;0.00;0.00;;;13.60;82.00;;;;;;6155747;23;20054;-91
2023/05/17 12:00:44;;;;;;;0.00;0.00;;;13.40;82.40;;;;;;6153975;23;20091;-88
2023/05/17 12:03:21;;;;;;;0.00;0.00;;;13.60;82.20;;;;;;6156082;23;20027;-89
2023/05/17 12:05:48;;;;;;;0.00;0.00;;;13.60;81.80;;;;;;6183388;23;20001;-89
2023/05/17 12:08:19;;;;;;;0.00;0.00;;;13.30;82.70;;;;;;6157674;23;20005;-90
2023/05/17 12:10:50;;;;;;;0.00;0.00;;;13.30;83.60;;;;;;6156355;23;20001;-88
2023/05/17 12:13:17;;;;;;;0.00;0.00;;;12.90;82.70;;;;;;6156752;23;20621;-88
2023/05/17 12:16:04;;;;;;;0.00;0.00;;;13.30;82.70;;;;;;6156490;23;20437;-87
2023/05/17 12:18:37;;;;;;;0.00;0.00;;;13.30;82.20;;;;;;6156888;23;20020;-87
2023/05/17 12:21:03;;;;;;;0.00;0.00;;;13.30;81.20;;;;;;6157070;23;20091;-88
2023/05/17 12:23:38;;;;;;;0.00;0.00;;;13.30;82.30;;;;;;6157423;23;20067;-88
2023/05/17 12:26:11;;;;;;;0.00;0.00;;;13.80;80.50;;;;;;6153741;23;20053;-90
2023/05/17 12:28:42;;;;;;;0.00;0.00;;;14.20;82.10;;;;;;6153525;23;20009;-88
2023/05/17 12:31:15;;;;;;;0.00;0.00;;;13.80;82.40;;;;;;6155992;23;20005;-89
2023/05/17 12:33:42;;;;;;;0.00;0.00;;;13.80;82.90;;;;;;6157764;23;20033;-89
2023/05/17 12:36:09;;;;;;;0.00;0.00;;;14.00;82.00;;;;;;6159225;23;20005;-88
2023/05/17 12:38:38;;;;;;;0.00;0.00;;;13.90;82.40;;;;;;6160941;23;20143;-90
2023/05/17 12:41:05;;;;;;;0.00;0.00;;;14.20;83.40;;;;;;6159419;23;20088;-90
2023/05/17 12:43:34;;;;;;;0.00;0.00;;;14.50;80.80;;;;;;6159425;23;20120;-89
2023/05/17 12:46:08;;;;;;;0.00;0.00;;;14.60;79.70;;;;;;6158754;23;20009;-88
2023/05/17 12:48:35;;;;;;;0.00;0.00;;;14.40;80.20;;;;;;6160476;23;20032;-88
2023/05/17 12:51:11;;;;;;;0.00;0.00;;;14.40;80.70;;;;;;6159407;23;20115;-90
2023/05/17 12:53:50;;;;;;;0.00;0.00;;;14.40;80.50;;;;;;6160582;23;20001;-89
2023/05/17 12:56:21;;;;;;;0.00;0.00;;;14.10;77.20;;;;;;6159098;23;20031;-89
2023/05/17 12:59:19;;;;;;;0.00;0.00;;;14.10;77.70;;;;;;6186277;23;20028;-89
2023/05/17 13:01:54;;;;;;;0.00;0.00;;;14.00;78.30;;;;;;6157905;23;20105;-90
2023/05/17 13:04:28;;;;;;;0.00;0.00;;;14.10;79.10;;;;;;6160131;23;20005;-90
2023/05/17 13:07:01;;;;;;;0.00;0.00;;;13.90;80.10;;;;;;6159598;23;20314;-90
2023/05/17 13:09:32;;;;;;;0.00;0.00;;;14.20;81.30;;;;;;6158553;23;20001;-86
2023/05/17 13:11:59;;;;;;;0.00;0.00;;;14.40;80.10;;;;;;6158985;23;20005;-90
2023/05/17 13:14:43;;;;;;;0.00;0.00;;;14.50;82.10;;;;;;6156729;23;20013;-90
2023/05/17 13:17:11;;;;;;;0.00;0.00;;;14.50;81.40;;;;;;6158759;23;20005;-88
2023/05/17 13:19:37;;;;;;;0.00;0.00;;;14.50;78.30;;;;;;6158924;23;20009;-90